Longvann — PBYB — position and weather

sailwx.info

Track history (hours):
 
Tides and Currents Weather Stations Pressure Air Temp Water Temp Dewpoint Dewpoint Depression Visibility Wind Speed Wind Dir Waves Ship Positions

Longvann

Last reported at 2017-Jan-20 07:31 UTC. Time now 2017-Jan-23 10:43 UTC.
Position N 49°48' W 003°26'.

Length 114 m; draft 5.8 m.

Type: Cargo ship. MMSI: 246670000.

Date/timePositionNaut miles runAvg speedWind from/ knotsBaromVisibWave heightAir tempDewpointWater temp
2017-Jan-20 07:31N 49°48' W 003°26'1212.5
2017-Jan-20 06:33N 49°54' W 003°10'1312.7
2017-Jan-20 05:32N 50°00' W 002°52'3711.3
2017-Jan-20 02:15N 50°10' W 001°57'7 9.5
2017-Jan-20 01:33N 50°12' W 001°47'9 9.2
2017-Jan-20 00:33N 50°14' W 001°33'9 9.6
2017-Jan-19 23:33N 50°17' W 001°18'2311.4
2017-Jan-19 21:34N 50°23' W 000°44'1312.7
2017-Jan-19 20:33N 50°27' W 000°25'1312.6
2017-Jan-19 19:30N 50°29' W 000°04'1212.7
2017-Jan-19 18:33N 50°33' E 000°14'1212.3
2017-Jan-19 17:33N 50°36' E 000°32'1211.7
2017-Jan-19 16:33N 50°43' E 000°47'2211.1
2017-Jan-19 14:33N 50°57' E 001°15'1212.1
2017-Jan-19 13:33N 51°05' E 001°29'1413.8
2017-Jan-19 12:33N 51°14' E 001°45'1413.6
2017-Jan-19 11:33N 51°27' E 001°54'1312.5
2017-Jan-19 10:33N 51°36' E 002°08'1211.8
2017-Jan-19 09:33N 51°45' E 002°20'1311.1
2017-Jan-19 08:22N 51°55' E 002°34'2810.1
2017-Jan-19 05:33N 52°16' E 003°03'1110.8
2017-Jan-19 04:32N 52°25' E 003°14'1111.5
2017-Jan-19 03:33N 52°34' E 003°25'1211.9
2017-Jan-19 02:33N 52°43' E 003°39'1212.2
2017-Jan-19 01:33N 52°52' E 003°52'1311.9
2017-Jan-19 00:30N 53°01' E 004°07'1111.2
2017-Jan-18 23:30N 53°08' E 004°21'1010.3
2017-Jan-18 22:33N 53°17' E 004°29'1010.1
2017-Jan-18 21:33N 53°26' E 004°34'2410.4
2017-Jan-18 19:13N 53°49' E 004°47'811.2
2017-Jan-18 18:30N 53°57' E 004°52'2210.9
2017-Jan-18 16:28N 54°17' E 005°07'310 9.6
2017-Jan-17 08:12N 58°44' E 009°52'811.6
2017-Jan-17 07:29N 58°52' E 009°50'1010.8
2017-Jan-17 06:31N 59°02' E 009°44'6 0.3
2017-Jan-16 08:31N 59°07' E 009°37'8 8.0
2017-Jan-16 07:33N 59°01' E 009°45'9 8.8
2017-Jan-16 06:33N 58°52' E 009°48'8 8.0
2017-Jan-16 05:33N 58°44' E 009°49'8 8.4
2017-Jan-16 04:33N 58°36' E 009°52'8 8.0
2017-Jan-16 03:33N 58°28' E 009°52'185 9.5
2017-Jan-15 08:05N 55°50' E 006°55'5 9.6
2017-Jan-15 07:32N 55°45' E 006°52'10 9.5
2017-Jan-15 06:29N 55°35' E 006°46'9 8.7
2017-Jan-15 05:26N 55°27' E 006°43'7 7.9
2017-Jan-15 04:33N 55°20' E 006°41'5 4.9
2017-Jan-15 03:33N 55°15' E 006°41'5 4.8
2017-Jan-15 02:33N 55°10' E 006°44'5 4.6
2017-Jan-15 01:33N 55°06' E 006°46'4 4.3
2017-Jan-15 00:33N 55°02' E 006°50'4 3.8
2017-Jan-14 23:33N 54°59' E 006°53'4 3.6
2017-Jan-14 22:33N 54°56' E 006°56'3 3.1
2017-Jan-14 21:33N 54°53' E 006°60'3 3.2
2017-Jan-14 20:33N 54°50' E 007°02'3 3.2
2017-Jan-14 19:32N 54°47' E 007°04'10 3.2
2017-Jan-14 16:30N 54°38' E 007°09'54 3.2
2017-Jan-13 23:33N 53°52' E 007°55'3 3.4
2017-Jan-13 22:33N 53°51' E 008°00'5 4.7
2017-Jan-13 21:33N 53°49' E 008°07'7 7.5
2017-Jan-13 20:33N 53°44' E 008°16'1111.1
2017-Jan-13 19:33N 53°36' E 008°30'10 9.8
2017-Jan-13 18:33N 53°26' E 008°29'1312.9
2017-Jan-13 17:33N 53°14' E 008°29'1010.3
2017-Jan-13 16:33N 53°07' E 008°42'0 0.5
2017-Jan-13 15:33N 53°08' E 008°43'0 0.0
2017-Jan-13 14:34N 53°08' E 008°43'0 0.0
2017-Jan-13 13:33N 53°08' E 008°43'0 0.0
2017-Jan-13 12:34N 53°08' E 008°43'0 0.0
2017-Jan-13 11:33N 53°08' E 008°43'0 0.0
2017-Jan-13 10:33N 53°08' E 008°43'0 0.0
2017-Jan-13 09:33N 53°08' E 008°43'0 0.0
2017-Jan-13 08:34N 53°08' E 008°43'0 0.0
2017-Jan-13 07:34N 53°08' E 008°43'0 0.0
2017-Jan-13 06:33N 53°08' E 008°43'0 0.0
2017-Jan-13 05:34N 53°08' E 008°43'0 0.0
2017-Jan-13 04:34N 53°08' E 008°43'0 0.0
2017-Jan-13 03:33N 53°08' E 008°43'0 0.0
2017-Jan-13 02:33N 53°08' E 008°43'0 0.0
2017-Jan-13 01:33N 53°08' E 008°43'0 0.0
2017-Jan-13 00:33N 53°08' E 008°43'0 0.0
2017-Jan-12 23:34N 53°08' E 008°43'0 0.0
2017-Jan-12 22:33N 53°08' E 008°43'0 0.0
2017-Jan-12 21:33N 53°08' E 008°43'0 0.0
2017-Jan-12 20:34N 53°08' E 008°43'0 0.0
2017-Jan-12 19:33N 53°08' E 008°43'0 0.0
2017-Jan-12 18:33N 53°08' E 008°43'0 0.0
2017-Jan-12 17:33N 53°08' E 008°43'0 0.0
2017-Jan-12 16:34N 53°08' E 008°43'0 0.0
2017-Jan-12 15:33N 53°08' E 008°43'0 0.0
2017-Jan-12 14:33N 53°08' E 008°43'0 0.0
2017-Jan-12 13:33N 53°08' E 008°43'0 0.0
2017-Jan-12 12:34N 53°08' E 008°43'0 0.0
2017-Jan-12 11:33N 53°08' E 008°43'0 0.0
2017-Jan-12 10:33N 53°08' E 008°43'0 0.0
2017-Jan-12 09:34N 53°08' E 008°43'0 0.1
2017-Jan-12 08:34N 53°08' E 008°43'0 0.0
2017-Jan-12 07:33N 53°08' E 008°43'0 0.0
2017-Jan-12 06:33N 53°08' E 008°43'0 0.0
2017-Jan-12 05:33N 53°08' E 008°43'0 0.0
2017-Jan-12 04:33N 53°08' E 008°43'0 0.0
2017-Jan-12 03:33N 53°08' E 008°43'0 0.0
2017-Jan-12 02:34N 53°08' E 008°43'0 0.0
2017-Jan-12 01:33N 53°08' E 008°43'0 0.0
2017-Jan-12 00:33N 53°08' E 008°43'0 0.0
2017-Jan-11 23:33N 53°08' E 008°43'0 0.0
2017-Jan-11 22:33N 53°08' E 008°43'0 0.0
2017-Jan-11 21:33N 53°08' E 008°43'0 0.0
2017-Jan-11 20:34N 53°08' E 008°43'0 0.0
2017-Jan-11 19:33N 53°08' E 008°43'0 0.0
2017-Jan-11 18:34N 53°08' E 008°43'0 0.0
2017-Jan-11 17:33N 53°08' E 008°43'0 0.3
2017-Jan-11 16:33N 53°07' E 008°43'1 0.8
2017-Jan-11 15:34N 53°07' E 008°42'8 7.7
2017-Jan-11 14:33N 53°12' E 008°31'10 9.5
2017-Jan-11 13:33N 53°21' E 008°30'1010.3
2017-Jan-11 12:33N 53°31' E 008°33'1110.7
2017-Jan-11 11:33N 53°40' E 008°23'1211.7
2017-Jan-11 10:33N 53°48' E 008°08'1111.2
2017-Jan-11 09:33N 53°52' E 007°50'123 7.5
2017-Jan-10 17:08N 53°13' E 004°34'1011.6
2017-Jan-10 16:19N 53°05' E 004°25'911.6
2017-Jan-10 15:33N 52°57' E 004°19'1211.9
2017-Jan-10 14:33N 52°46' E 004°09'1312.1
2017-Jan-10 13:26N 52°36' E 003°56'  
Track history (hours):
 
Tides and Currents Weather Stations Pressure Air Temp Water Temp Dewpoint Dewpoint Depression Visibility Wind Speed Wind Dir Waves Ship Positions

Longvann

Last reported at 2017-Jan-20 07:31 UTC. Time now 2017-Jan-23 10:43 UTC.
Position N 49°48' W 003°26'.

Length 114 m; draft 5.8 m.

Type: Cargo ship. MMSI: 246670000.

Date/timePositionNaut miles runAvg speedWind from/ knotsBaromVisibWave heightAir tempDewpointWater temp
2017-Jan-20 07:31N 49°48' W 003°26'1212.5
2017-Jan-20 06:33N 49°54' W 003°10'1312.7
2017-Jan-20 05:32N 50°00' W 002°52'3711.3
2017-Jan-20 02:15N 50°10' W 001°57'7 9.5
2017-Jan-20 01:33N 50°12' W 001°47'9 9.2
2017-Jan-20 00:33N 50°14' W 001°33'9 9.6
2017-Jan-19 23:33N 50°17' W 001°18'2311.4
2017-Jan-19 21:34N 50°23' W 000°44'1312.7
2017-Jan-19 20:33N 50°27' W 000°25'1312.6
2017-Jan-19 19:30N 50°29' W 000°04'1212.7
2017-Jan-19 18:33N 50°33' E 000°14'1212.3
2017-Jan-19 17:33N 50°36' E 000°32'1211.7
2017-Jan-19 16:33N 50°43' E 000°47'2211.1
2017-Jan-19 14:33N 50°57' E 001°15'1212.1
2017-Jan-19 13:33N 51°05' E 001°29'1413.8
2017-Jan-19 12:33N 51°14' E 001°45'1413.6
2017-Jan-19 11:33N 51°27' E 001°54'1312.5
2017-Jan-19 10:33N 51°36' E 002°08'1211.8
2017-Jan-19 09:33N 51°45' E 002°20'1311.1
2017-Jan-19 08:22N 51°55' E 002°34'2810.1
2017-Jan-19 05:33N 52°16' E 003°03'1110.8
2017-Jan-19 04:32N 52°25' E 003°14'1111.5
2017-Jan-19 03:33N 52°34' E 003°25'1211.9
2017-Jan-19 02:33N 52°43' E 003°39'1212.2
2017-Jan-19 01:33N 52°52' E 003°52'1311.9
2017-Jan-19 00:30N 53°01' E 004°07'1111.2
2017-Jan-18 23:30N 53°08' E 004°21'1010.3
2017-Jan-18 22:33N 53°17' E 004°29'1010.1
2017-Jan-18 21:33N 53°26' E 004°34'2410.4
2017-Jan-18 19:13N 53°49' E 004°47'811.2
2017-Jan-18 18:30N 53°57' E 004°52'2210.9
2017-Jan-18 16:28N 54°17' E 005°07'310 9.6
2017-Jan-17 08:12N 58°44' E 009°52'811.6
2017-Jan-17 07:29N 58°52' E 009°50'1010.8
2017-Jan-17 06:31N 59°02' E 009°44'6 0.3
2017-Jan-16 08:31N 59°07' E 009°37'8 8.0
2017-Jan-16 07:33N 59°01' E 009°45'9 8.8
2017-Jan-16 06:33N 58°52' E 009°48'8 8.0
2017-Jan-16 05:33N 58°44' E 009°49'8 8.4
2017-Jan-16 04:33N 58°36' E 009°52'8 8.0
2017-Jan-16 03:33N 58°28' E 009°52'185 9.5
2017-Jan-15 08:05N 55°50' E 006°55'5 9.6
2017-Jan-15 07:32N 55°45' E 006°52'10 9.5
2017-Jan-15 06:29N 55°35' E 006°46'9 8.7
2017-Jan-15 05:26N 55°27' E 006°43'7 7.9
2017-Jan-15 04:33N 55°20' E 006°41'5 4.9
2017-Jan-15 03:33N 55°15' E 006°41'5 4.8
2017-Jan-15 02:33N 55°10' E 006°44'5 4.6
2017-Jan-15 01:33N 55°06' E 006°46'4 4.3
2017-Jan-15 00:33N 55°02' E 006°50'4 3.8
2017-Jan-14 23:33N 54°59' E 006°53'4 3.6
2017-Jan-14 22:33N 54°56' E 006°56'3 3.1
2017-Jan-14 21:33N 54°53' E 006°60'3 3.2
2017-Jan-14 20:33N 54°50' E 007°02'3 3.2
2017-Jan-14 19:32N 54°47' E 007°04'10 3.2
2017-Jan-14 16:30N 54°38' E 007°09'54 3.2
2017-Jan-13 23:33N 53°52' E 007°55'3 3.4
2017-Jan-13 22:33N 53°51' E 008°00'5 4.7
2017-Jan-13 21:33N 53°49' E 008°07'7 7.5
2017-Jan-13 20:33N 53°44' E 008°16'1111.1
2017-Jan-13 19:33N 53°36' E 008°30'10 9.8
2017-Jan-13 18:33N 53°26' E 008°29'1312.9
2017-Jan-13 17:33N 53°14' E 008°29'1010.3
2017-Jan-13 16:33N 53°07' E 008°42'0 0.5
2017-Jan-13 15:33N 53°08' E 008°43'0 0.0
2017-Jan-13 14:34N 53°08' E 008°43'0 0.0
2017-Jan-13 13:33N 53°08' E 008°43'0 0.0
2017-Jan-13 12:34N 53°08' E 008°43'0 0.0
2017-Jan-13 11:33N 53°08' E 008°43'0 0.0
2017-Jan-13 10:33N 53°08' E 008°43'0 0.0
2017-Jan-13 09:33N 53°08' E 008°43'0 0.0
2017-Jan-13 08:34N 53°08' E 008°43'0 0.0
2017-Jan-13 07:34N 53°08' E 008°43'0 0.0
2017-Jan-13 06:33N 53°08' E 008°43'0 0.0
2017-Jan-13 05:34N 53°08' E 008°43'0 0.0
2017-Jan-13 04:34N 53°08' E 008°43'0 0.0
2017-Jan-13 03:33N 53°08' E 008°43'0 0.0
2017-Jan-13 02:33N 53°08' E 008°43'0 0.0
2017-Jan-13 01:33N 53°08' E 008°43'0 0.0
2017-Jan-13 00:33N 53°08' E 008°43'0 0.0
2017-Jan-12 23:34N 53°08' E 008°43'0 0.0
2017-Jan-12 22:33N 53°08' E 008°43'0 0.0
2017-Jan-12 21:33N 53°08' E 008°43'0 0.0
2017-Jan-12 20:34N 53°08' E 008°43'0 0.0
2017-Jan-12 19:33N 53°08' E 008°43'0 0.0
2017-Jan-12 18:33N 53°08' E 008°43'0 0.0
2017-Jan-12 17:33N 53°08' E 008°43'0 0.0
2017-Jan-12 16:34N 53°08' E 008°43'0 0.0
2017-Jan-12 15:33N 53°08' E 008°43'0 0.0
2017-Jan-12 14:33N 53°08' E 008°43'0 0.0
2017-Jan-12 13:33N 53°08' E 008°43'0 0.0
2017-Jan-12 12:34N 53°08' E 008°43'0 0.0
2017-Jan-12 11:33N 53°08' E 008°43'0 0.0
2017-Jan-12 10:33N 53°08' E 008°43'0 0.0
2017-Jan-12 09:34N 53°08' E 008°43'0 0.1
2017-Jan-12 08:34N 53°08' E 008°43'0 0.0
2017-Jan-12 07:33N 53°08' E 008°43'0 0.0
2017-Jan-12 06:33N 53°08' E 008°43'0 0.0
2017-Jan-12 05:33N 53°08' E 008°43'0 0.0
2017-Jan-12 04:33N 53°08' E 008°43'0 0.0
2017-Jan-12 03:33N 53°08' E 008°43'0 0.0
2017-Jan-12 02:34N 53°08' E 008°43'0 0.0
2017-Jan-12 01:33N 53°08' E 008°43'0 0.0
2017-Jan-12 00:33N 53°08' E 008°43'0 0.0
2017-Jan-11 23:33N 53°08' E 008°43'0 0.0
2017-Jan-11 22:33N 53°08' E 008°43'0 0.0
2017-Jan-11 21:33N 53°08' E 008°43'0 0.0
2017-Jan-11 20:34N 53°08' E 008°43'0 0.0
2017-Jan-11 19:33N 53°08' E 008°43'0 0.0
2017-Jan-11 18:34N 53°08' E 008°43'0 0.0
2017-Jan-11 17:33N 53°08' E 008°43'0 0.3
2017-Jan-11 16:33N 53°07' E 008°43'1 0.8
2017-Jan-11 15:34N 53°07' E 008°42'8 7.7
2017-Jan-11 14:33N 53°12' E 008°31'10 9.5
2017-Jan-11 13:33N 53°21' E 008°30'1010.3
2017-Jan-11 12:33N 53°31' E 008°33'1110.7
2017-Jan-11 11:33N 53°40' E 008°23'1211.7
2017-Jan-11 10:33N 53°48' E 008°08'1111.2
2017-Jan-11 09:33N 53°52' E 007°50'123 7.5
2017-Jan-10 17:08N 53°13' E 004°34'1011.6
2017-Jan-10 16:19N 53°05' E 004°25'911.6
2017-Jan-10 15:33N 52°57' E 004°19'1211.9
2017-Jan-10 14:33N 52°46' E 004°09'1312.1
2017-Jan-10 13:26N 52°36' E 003°56'  

Dump ship's entire track history